sensor_id;sensor_type;location;lat;lon;timestamp;pressure;altitude;pressure_sealevel;temperature;humidity
34205;BME280;20471;49.680;20.074;2023-07-13T00:00:57;96880.91;;;18.52;80.67
34205;BME280;20471;49.680;20.074;2023-07-13T00:04:22;96877.74;;;18.55;80.87
34205;BME280;20471;49.680;20.074;2023-07-13T00:07:30;96873.70;;;18.55;80.91
34205;BME280;20471;49.680;20.074;2023-07-13T00:11:01;96865.55;;;18.52;81.01
34205;BME280;20471;49.680;20.074;2023-07-13T00:16:29;96836.36;;;18.52;81.29
34205;BME280;20471;49.680;20.074;2023-07-13T00:26:23;96846.85;;;18.51;81.60
34205;BME280;20471;49.680;20.074;2023-07-13T00:35:42;96882.52;;;18.62;81.86
34205;BME280;20471;49.680;20.074;2023-07-13T01:32:06;96944.87;;;18.57;81.52
34205;BME280;20471;49.680;20.074;2023-07-13T01:38:04;96933.81;;;18.49;81.71
34205;BME280;20471;49.680;20.074;2023-07-13T02:34:48;96893.95;;;18.86;81.66
34205;BME280;20471;49.680;20.074;2023-07-13T02:41:02;96898.41;;;18.54;82.12
34205;BME280;20471;49.680;20.074;2023-07-13T03:16:44;96890.63;;;18.15;83.45
34205;BME280;20471;49.680;20.074;2023-07-13T03:29:52;96901.23;;;18.17;83.63
34205;BME280;20471;49.680;20.074;2023-07-13T03:46:10;96916.30;;;18.07;83.67
34205;BME280;20471;49.680;20.074;2023-07-13T04:22:01;96905.13;;;17.93;84.52
34205;BME280;20471;49.680;20.074;2023-07-13T04:30:55;96912.73;;;17.95;84.73
34205;BME280;20471;49.680;20.074;2023-07-13T04:33:37;96913.50;;;17.96;84.80
34205;BME280;20471;49.680;20.074;2023-07-13T04:36:20;96917.71;;;17.97;84.91
34205;BME280;20471;49.680;20.074;2023-07-13T04:39:00;96916.90;;;17.98;85.04
34205;BME280;20471;49.680;20.074;2023-07-13T04:41:43;96916.62;;;17.97;85.17
34205;BME280;20471;49.680;20.074;2023-07-13T04:44:25;96912.59;;;17.97;85.25
34205;BME280;20471;49.680;20.074;2023-07-13T04:47:06;96904.11;;;17.96;85.41
34205;BME280;20471;49.680;20.074;2023-07-13T04:49:48;96894.23;;;17.96;85.48
34205;BME280;20471;49.680;20.074;2023-07-13T04:52:30;96884.88;;;17.99;85.86
34205;BME280;20471;49.680;20.074;2023-07-13T04:55:13;96876.10;;;18.06;86.03
34205;BME280;20471;49.680;20.074;2023-07-13T04:57:55;96870.48;;;18.13;86.16
34205;BME280;20471;49.680;20.074;2023-07-13T05:00:39;96871.90;;;18.21;86.24
34205;BME280;20471;49.680;20.074;2023-07-13T05:03:07;96873.27;;;18.30;86.24
34205;BME280;20471;49.680;20.074;2023-07-13T05:05:34;96869.98;;;18.38;86.26
34205;BME280;20471;49.680;20.074;2023-07-13T05:08:02;96868.29;;;18.47;86.40
34205;BME280;20471;49.680;20.074;2023-07-13T05:45:13;96817.39;;;20.04;85.08
34205;BME280;20471;49.680;20.074;2023-07-13T06:31:41;96808.33;;;21.76;82.70
34205;BME280;20471;49.680;20.074;2023-07-13T06:37:55;96815.54;;;21.98;81.68
34205;BME280;20471;49.680;20.074;2023-07-13T07:05:45;96799.42;;;22.93;78.28
34205;BME280;20471;49.680;20.074;2023-07-13T07:08:11;96798.35;;;22.95;77.81
34205;BME280;20471;49.680;20.074;2023-07-13T07:10:36;96790.99;;;22.97;77.80
34205;BME280;20471;49.680;20.074;2023-07-13T07:13:02;96787.52;;;22.98;77.71
34205;BME280;20471;49.680;20.074;2023-07-13T07:15:28;96793.08;;;22.98;77.26
34205;BME280;20471;49.680;20.074;2023-07-13T07:17:54;96792.95;;;22.94;76.89
34205;BME280;20471;49.680;20.074;2023-07-13T07:20:19;96800.75;;;22.89;76.83
34205;BME280;20471;49.680;20.074;2023-07-13T07:22:44;96803.89;;;22.85;76.52
34205;BME280;20471;49.680;20.074;2023-07-13T07:25:11;96801.24;;;22.81;76.39
34205;BME280;20471;49.680;20.074;2023-07-13T07:27:37;96805.10;;;22.77;76.20
34205;BME280;20471;49.680;20.074;2023-07-13T07:30:02;96808.98;;;22.74;76.42
34205;BME280;20471;49.680;20.074;2023-07-13T07:32:29;96806.81;;;22.70;76.16
34205;BME280;20471;49.680;20.074;2023-07-13T07:44:54;96807.39;;;22.59;76.39
34205;BME280;20471;49.680;20.074;2023-07-13T07:48:00;96802.56;;;22.56;76.32
34205;BME280;20471;49.680;20.074;2023-07-13T08:34:17;96811.80;;;22.90;77.62
34205;BME280;20471;49.680;20.074;2023-07-13T09:48:38;96814.92;;;22.59;76.49
34205;BME280;20471;49.680;20.074;2023-07-13T09:51:39;96845.03;;;22.45;76.97
34205;BME280;20471;49.680;20.074;2023-07-13T09:57:38;96847.52;;;21.89;76.82
34205;BME280;20471;49.680;20.074;2023-07-13T10:00:55;96841.14;;;21.51;76.33
34205;BME280;20471;49.680;20.074;2023-07-13T11:16:58;96955.92;;;18.86;81.57
34205;BME280;20471;49.680;20.074;2023-07-13T12:00:42;96994.05;;;18.67;83.15
34205;BME280;20471;49.680;20.074;2023-07-13T12:07:28;97005.14;;;18.61;83.61
34205;BME280;20471;49.680;20.074;2023-07-13T12:15:47;97031.77;;;18.50;83.65
34205;BME280;20471;49.680;20.074;2023-07-13T12:18:33;97022.30;;;18.37;83.53
34205;BME280;20471;49.680;20.074;2023-07-13T12:21:01;97028.27;;;18.21;83.88
34205;BME280;20471;49.680;20.074;2023-07-13T12:23:32;97039.56;;;18.18;84.21
34205;BME280;20471;49.680;20.074;2023-07-13T12:26:05;97062.64;;;18.22;84.23
34205;BME280;20471;49.680;20.074;2023-07-13T12:28:51;97078.05;;;18.20;84.27
34205;BME280;20471;49.680;20.074;2023-07-13T12:36:41;97077.86;;;18.06;84.34
34205;BME280;20471;49.680;20.074;2023-07-13T12:41:48;97080.59;;;18.04;85.10
34205;BME280;20471;49.680;20.074;2023-07-13T12:44:28;97083.31;;;18.04;84.92
34205;BME280;20471;49.680;20.074;2023-07-13T12:57:08;97059.36;;;18.07;85.53
34205;BME280;20471;49.680;20.074;2023-07-13T13:35:01;97044.81;;;19.01;84.81
34205;BME280;20471;49.680;20.074;2023-07-13T13:51:21;97046.89;;;19.60;84.64
34205;BME280;20471;49.680;20.074;2023-07-13T14:01:00;97052.83;;;19.77;83.30
34205;BME280;20471;49.680;20.074;2023-07-13T14:07:44;97050.03;;;19.93;83.23
34205;BME280;20471;49.680;20.074;2023-07-13T14:10:52;97055.88;;;19.99;83.36
34205;BME280;20471;49.680;20.074;2023-07-13T14:14:00;97058.59;;;20.04;82.81
34205;BME280;20471;49.680;20.074;2023-07-13T14:20:17;97046.55;;;20.46;82.76
34205;BME280;20471;49.680;20.074;2023-07-13T14:27:01;97030.91;;;20.76;81.41
34205;BME280;20471;49.680;20.074;2023-07-13T14:39:54;97031.16;;;21.25;80.27
34205;BME280;20471;49.680;20.074;2023-07-13T14:42:21;97031.28;;;21.28;80.45
34205;BME280;20471;49.680;20.074;2023-07-13T14:44:49;97033.89;;;21.36;80.50
34205;BME280;20471;49.680;20.074;2023-07-13T14:47:17;97034.90;;;21.40;80.10
34205;BME280;20471;49.680;20.074;2023-07-13T14:49:45;97034.35;;;21.46;79.59
34205;BME280;20471;49.680;20.074;2023-07-13T14:52:19;97029.11;;;21.53;79.00
34205;BME280;20471;49.680;20.074;2023-07-13T14:54:47;97033.45;;;21.53;78.92
34205;BME280;20471;49.680;20.074;2023-07-13T14:57:17;97036.80;;;21.48;78.72
34205;BME280;20471;49.680;20.074;2023-07-13T14:59:47;97038.11;;;21.43;78.60
34205;BME280;20471;49.680;20.074;2023-07-13T15:02:27;97041.65;;;21.39;78.30
34205;BME280;20471;49.680;20.074;2023-07-13T15:04:57;97046.95;;;21.32;77.79
34205;BME280;20471;49.680;20.074;2023-07-13T15:07:25;97052.14;;;21.21;77.77
34205;BME280;20471;49.680;20.074;2023-07-13T15:09:53;97047.77;;;21.08;78.03
34205;BME280;20471;49.680;20.074;2023-07-13T15:12:21;97055.17;;;20.97;78.06
34205;BME280;20471;49.680;20.074;2023-07-13T15:14:48;97066.73;;;20.86;77.93
34205;BME280;20471;49.680;20.074;2023-07-13T15:17:36;97065.06;;;20.79;77.67
34205;BME280;20471;49.680;20.074;2023-07-13T15:20:27;97060.23;;;20.79;77.63
34205;BME280;20471;49.680;20.074;2023-07-13T15:22:56;97055.68;;;20.78;77.37
34205;BME280;20471;49.680;20.074;2023-07-13T15:25:27;97054.91;;;20.78;77.27
34205;BME280;20471;49.680;20.074;2023-07-13T15:27:57;97056.84;;;20.79;77.41
34205;BME280;20471;49.680;20.074;2023-07-13T15:30:28;97059.05;;;20.86;77.30
34205;BME280;20471;49.680;20.074;2023-07-13T15:32:58;97056.04;;;20.89;77.05
34205;BME280;20471;49.680;20.074;2023-07-13T15:35:29;97061.55;;;20.93;76.95
34205;BME280;20471;49.680;20.074;2023-07-13T15:37:56;97065.76;;;21.05;77.19
34205;BME280;20471;49.680;20.074;2023-07-13T15:40:24;97066.11;;;21.20;77.03
34205;BME280;20471;49.680;20.074;2023-07-13T15:42:52;97075.09;;;21.25;76.47
34205;BME280;20471;49.680;20.074;2023-07-13T15:45:24;97081.41;;;21.27;75.97
34205;BME280;20471;49.680;20.074;2023-07-13T15:47:52;97082.93;;;21.29;75.73
34205;BME280;20471;49.680;20.074;2023-07-13T15:50:22;97079.52;;;21.29;75.35
34205;BME280;20471;49.680;20.074;2023-07-13T15:52:55;97070.33;;;21.32;75.58
34205;BME280;20471;49.680;20.074;2023-07-13T15:55:25;97072.72;;;21.36;75.77
34205;BME280;20471;49.680;20.074;2023-07-13T15:57:53;97076.81;;;21.38;75.79
34205;BME280;20471;49.680;20.074;2023-07-13T16:00:27;97079.48;;;21.35;75.41
34205;BME280;20471;49.680;20.074;2023-07-13T16:02:54;97089.94;;;21.32;74.96
34205;BME280;20471;49.680;20.074;2023-07-13T16:05:23;97095.71;;;21.23;74.64
34205;BME280;20471;49.680;20.074;2023-07-13T16:07:52;97098.09;;;20.96;74.50
34205;BME280;20471;49.680;20.074;2023-07-13T16:10:32;97107.42;;;20.79;74.80
34205;BME280;20471;49.680;20.074;2023-07-13T16:13:02;97111.08;;;20.75;75.49
34205;BME280;20471;49.680;20.074;2023-07-13T16:15:31;97115.09;;;20.79;75.87
34205;BME280;20471;49.680;20.074;2023-07-13T16:21:52;97122.30;;;20.94;75.52
34205;BME280;20471;49.680;20.074;2023-07-13T16:57:15;97144.16;;;20.25;75.57
34205;BME280;20471;49.680;20.074;2023-07-13T16:59:45;97140.28;;;20.21;75.77
34205;BME280;20471;49.680;20.074;2023-07-13T17:04:57;97142.04;;;20.26;75.72
34205;BME280;20471;49.680;20.074;2023-07-13T17:07:25;97148.67;;;20.20;75.90
34205;BME280;20471;49.680;20.074;2023-07-13T17:09:55;97151.63;;;20.19;75.69
34205;BME280;20471;49.680;20.074;2023-07-13T17:12:22;97154.98;;;20.22;75.62
34205;BME280;20471;49.680;20.074;2023-07-13T17:14:51;97158.27;;;20.24;75.48
34205;BME280;20471;49.680;20.074;2023-07-13T17:17:30;97153.93;;;20.24;75.61
34205;BME280;20471;49.680;20.074;2023-07-13T17:19:59;97152.04;;;20.14;75.74
34205;BME280;20471;49.680;20.074;2023-07-13T17:22:29;97152.77;;;20.04;75.97
34205;BME280;20471;49.680;20.074;2023-07-13T17:24:58;97157.45;;;19.99;76.44
34205;BME280;20471;49.680;20.074;2023-07-13T17:56:31;97119.16;;;19.68;76.31
34205;BME280;20471;49.680;20.074;2023-07-13T17:58:56;97119.23;;;19.63;76.30
34205;BME280;20471;49.680;20.074;2023-07-13T18:01:22;97119.50;;;19.57;76.42
34205;BME280;20471;49.680;20.074;2023-07-13T18:03:50;97120.94;;;19.50;76.71
34205;BME280;20471;49.680;20.074;2023-07-13T18:06:22;97125.55;;;19.47;77.19
34205;BME280;20471;49.680;20.074;2023-07-13T18:08:56;97120.68;;;19.45;77.43
34205;BME280;20471;49.680;20.074;2023-07-13T18:11:23;97116.05;;;19.42;77.51
34205;BME280;20471;49.680;20.074;2023-07-13T18:13:48;97123.88;;;19.41;77.58
34205;BME280;20471;49.680;20.074;2023-07-13T18:16:23;97129.45;;;19.38;77.56
34205;BME280;20471;49.680;20.074;2023-07-13T18:18:49;97135.69;;;19.37;77.33
34205;BME280;20471;49.680;20.074;2023-07-13T18:21:16;97137.98;;;19.35;77.43
34205;BME280;20471;49.680;20.074;2023-07-13T18:23:42;97143.40;;;19.33;77.61
34205;BME280;20471;49.680;20.074;2023-07-13T18:26:11;97151.63;;;19.30;77.56
34205;BME280;20471;49.680;20.074;2023-07-13T18:29:33;97158.08;;;19.19;77.48
34205;BME280;20471;49.680;20.074;2023-07-13T18:42:30;97175.39;;;18.79;78.47
34205;BME280;20471;49.680;20.074;2023-07-13T20:03:04;97249.64;;;17.50;80.63
34205;BME280;20471;49.680;20.074;2023-07-13T20:05:28;97247.45;;;17.50;80.75
34205;BME280;20471;49.680;20.074;2023-07-13T20:08:17;97248.55;;;17.47;80.99
34205;BME280;20471;49.680;20.074;2023-07-13T20:10:58;97245.12;;;17.46;81.12
34205;BME280;20471;49.680;20.074;2023-07-13T20:13:39;97239.90;;;17.48;81.14
34205;BME280;20471;49.680;20.074;2023-07-13T20:16:19;97243.73;;;17.49;81.15
34205;BME280;20471;49.680;20.074;2023-07-13T20:19:00;97247.66;;;17.50;81.23
34205;BME280;20471;49.680;20.074;2023-07-13T20:21:41;97243.74;;;17.51;81.20
34205;BME280;20471;49.680;20.074;2023-07-13T20:24:22;97248.20;;;17.49;81.07
34205;BME280;20471;49.680;20.074;2023-07-13T20:26:47;97251.64;;;17.44;81.25
34205;BME280;20471;49.680;20.074;2023-07-13T20:29:14;97246.86;;;17.42;81.34
34205;BME280;20471;49.680;20.074;2023-07-13T20:31:40;97247.77;;;17.39;81.43
34205;BME280;20471;49.680;20.074;2023-07-13T21:08:01;97288.61;;;17.42;81.97
34205;BME280;20471;49.680;20.074;2023-07-13T21:33:15;97290.10;;;16.88;82.38
34205;BME280;20471;49.680;20.074;2023-07-13T21:35:57;97297.71;;;16.78;82.51
34205;BME280;20471;49.680;20.074;2023-07-13T21:38:40;97302.77;;;16.70;82.60
34205;BME280;20471;49.680;20.074;2023-07-13T22:30:10;97310.84;;;16.36;82.84
34205;BME280;20471;49.680;20.074;2023-07-13T22:55:33;97308.87;;;15.79;83.06
34205;BME280;20471;49.680;20.074;2023-07-13T23:00:59;97311.96;;;15.70;83.00
34205;BME280;20471;49.680;20.074;2023-07-13T23:03:27;97308.54;;;15.69;83.07
34205;BME280;20471;49.680;20.074;2023-07-13T23:05:54;97318.11;;;15.66;82.97
34205;BME280;20471;49.680;20.074;2023-07-13T23:08:20;97328.30;;;15.64;82.80
34205;BME280;20471;49.680;20.074;2023-07-13T23:10:47;97324.48;;;15.55;82.64
34205;BME280;20471;49.680;20.074;2023-07-13T23:13:13;97321.14;;;15.45;82.83
34205;BME280;20471;49.680;20.074;2023-07-13T23:15:40;97322.70;;;15.44;83.05
34205;BME280;20471;49.680;20.074;2023-07-13T23:18:08;97323.05;;;15.42;82.95
34205;BME280;20471;49.680;20.074;2023-07-13T23:20:36;97323.30;;;15.41;83.00
34205;BME280;20471;49.680;20.074;2023-07-13T23:23:01;97319.90;;;15.40;83.02
34205;BME280;20471;49.680;20.074;2023-07-13T23:25:29;97320.65;;;15.37;82.92
34205;BME280;20471;49.680;20.074;2023-07-13T23:28:11;97328.34;;;15.31;82.94
34205;BME280;20471;49.680;20.074;2023-07-13T23:30:51;97332.27;;;15.29;83.05
34205;BME280;20471;49.680;20.074;2023-07-13T23:33:34;97333.76;;;15.28;83.14
34205;BME280;20471;49.680;20.074;2023-07-13T23:36:02;97331.80;;;15.26;83.11
34205;BME280;20471;49.680;20.074;2023-07-13T23:38:30;97330.36;;;15.21;82.90
34205;BME280;20471;49.680;20.074;2023-07-13T23:40:57;97329.12;;;15.19;83.09
34205;BME280;20471;49.680;20.074;2023-07-13T23:43:25;97333.73;;;15.18;83.18
34205;BME280;20471;49.680;20.074;2023-07-13T23:45:53;97336.88;;;15.15;82.95
34205;BME280;20471;49.680;20.074;2023-07-13T23:48:20;97340.15;;;15.13;82.97
34205;BME280;20471;49.680;20.074;2023-07-13T23:50:49;97338.79;;;15.10;82.82
34205;BME280;20471;49.680;20.074;2023-07-13T23:53:18;97339.57;;;15.07;82.92
34205;BME280;20471;49.680;20.074;2023-07-13T23:55:45;97340.39;;;15.06;82.92
